Time;durP1;ratioP1;P1;durP2;ratioP2;P2;SDS_P1;SDS_P2;PMS_P1;PMS_P2;Temp;Humidity;BMP_temperature;BMP_pressure;BME280_temperature;BME280_humidity;BME280_pressure;Samples;Min_cycle;Max_cycle;Signal;HPM_P1;HPM_P2
2021/12/19 00:00:56;;;;;;;1.38;0.85;;;21.30;48.60;;;;;;5048222;28;43625;-62
2021/12/19 00:09:13;;;;;;;0.80;0.80;;;21.20;48.50;;;;;;5049767;28;43849;-62
2021/12/19 00:11:40;;;;;;;1.60;1.20;;;21.20;48.50;;;;;;5051716;28;43612;-62
2021/12/19 00:14:07;;;;;;;1.45;1.20;;;21.20;48.50;;;;;;5048329;28;43590;-62
2021/12/19 00:16:35;;;;;;;1.52;1.15;;;21.20;48.50;;;;;;5055405;28;44834;-62
2021/12/19 00:19:03;;;;;;;2.15;1.40;;;21.20;48.50;;;;;;5049800;28;44313;-61
2021/12/19 00:21:31;;;;;;;1.95;1.40;;;21.20;48.50;;;;;;5050310;28;43660;-62
2021/12/19 00:23:59;;;;;;;1.48;1.20;;;21.20;48.50;;;;;;5049619;28;45473;-62
2021/12/19 00:26:28;;;;;;;1.38;1.27;;;21.20;48.50;;;;;;5051870;28;43688;-62
2021/12/19 00:28:55;;;;;;;1.70;1.30;;;21.20;48.50;;;;;;5045112;28;43936;-62
2021/12/19 00:31:23;;;;;;;1.75;1.30;;;21.20;48.50;;;;;;5052307;28;43669;-62
2021/12/19 00:33:50;;;;;;;2.13;1.38;;;21.20;48.50;;;;;;5049942;28;43646;-62
2021/12/19 00:36:18;;;;;;;1.50;1.00;;;21.10;48.50;;;;;;5048676;28;43768;-62
2021/12/19 00:38:46;;;;;;;1.38;1.20;;;21.10;48.50;;;;;;5052620;28;44057;-62
2021/12/19 00:41:14;;;;;;;2.17;0.90;;;21.10;48.50;;;;;;5037459;28;43598;-62
2021/12/19 00:46:15;;;;;;;0.90;0.85;;;21.10;48.60;;;;;;5053641;28;43660;-62
2021/12/19 00:48:49;;;;;;;1.00;0.98;;;21.10;48.50;;;;;;5053971;28;43794;-62
2021/12/19 00:51:22;;;;;;;1.35;0.88;;;21.10;48.50;;;;;;5050994;28;44032;-62
2021/12/19 00:53:52;;;;;;;0.90;0.90;;;21.10;48.50;;;;;;5055446;28;43712;-62
2021/12/19 00:56:20;;;;;;;1.30;1.20;;;21.00;48.50;;;;;;5055753;28;43707;-62
2021/12/19 00:58:49;;;;;;;1.50;0.90;;;21.10;48.60;;;;;;5041635;28;44926;-62
2021/12/19 01:01:17;;;;;;;1.00;0.85;;;21.00;48.50;;;;;;5051239;28;43580;-62
2021/12/19 01:03:47;;;;;;;1.40;1.00;;;21.00;48.50;;;;;;5059878;28;43612;-62
2021/12/19 01:06:17;;;;;;;1.42;0.90;;;21.00;48.50;;;;;;5052675;28;43634;-62
2021/12/19 01:08:47;;;;;;;1.33;0.80;;;21.00;48.50;;;;;;5057718;28;44154;-62
2021/12/19 01:11:15;;;;;;;1.00;0.88;;;21.00;48.90;;;;;;5054606;28;43610;-62
2021/12/19 01:13:42;;;;;;;1.08;0.70;;;21.00;48.50;;;;;;5052626;28;43587;-62
2021/12/19 01:16:09;;;;;;;0.90;0.90;;;21.00;48.50;;;;;;5056438;28;44264;-62
2021/12/19 01:18:37;;;;;;;0.73;0.73;;;21.00;48.50;;;;;;5046854;28;44056;-62
2021/12/19 01:21:05;;;;;;;1.48;0.95;;;20.90;48.50;;;;;;5051724;28;43680;-62
2021/12/19 01:23:33;;;;;;;0.95;0.82;;;20.90;48.50;;;;;;5048630;28;43632;-62
2021/12/19 01:26:00;;;;;;;1.00;0.77;;;20.90;48.40;;;;;;5048006;28;43619;-61
2021/12/19 01:28:28;;;;;;;1.10;0.90;;;21.00;48.50;;;;;;5044835;28;43815;-61
2021/12/19 01:30:55;;;;;;;1.42;0.55;;;20.90;48.40;;;;;;5054469;28;43978;-62
2021/12/19 01:33:23;;;;;;;1.30;0.88;;;21.00;48.50;;;;;;5049730;28;44489;-62
2021/12/19 01:35:51;;;;;;;0.98;0.70;;;20.90;48.40;;;;;;5054045;28;43739;-62
2021/12/19 01:38:19;;;;;;;0.85;0.80;;;20.90;48.40;;;;;;5044234;28;44885;-62
2021/12/19 01:40:46;;;;;;;1.15;0.70;;;20.90;48.40;;;;;;5050656;28;43624;-62
2021/12/19 01:43:17;;;;;;;1.10;0.68;;;20.90;48.40;;;;;;5048849;28;43624;-62
2021/12/19 01:45:44;;;;;;;0.70;0.70;;;20.90;48.40;;;;;;5052509;28;43641;-62
2021/12/19 01:48:13;;;;;;;0.73;0.70;;;20.90;48.40;;;;;;5054233;28;44998;-61
2021/12/19 01:50:41;;;;;;;0.82;0.80;;;20.90;48.40;;;;;;5051997;28;44822;-62
2021/12/19 01:53:13;;;;;;;0.85;0.75;;;20.90;48.40;;;;;;5035591;28;43649;-62
2021/12/19 01:55:43;;;;;;;0.47;0.40;;;20.90;48.40;;;;;;5049505;28;43676;-62
2021/12/19 01:58:11;;;;;;;0.98;0.90;;;20.90;48.50;;;;;;5050045;28;44100;-62
2021/12/19 02:00:49;;;;;;;0.60;0.60;;;20.90;48.40;;;;;;5051116;28;43500;-62
2021/12/19 02:03:19;;;;;;;1.23;0.60;;;20.90;48.40;;;;;;5056019;28;43575;-62
2021/12/19 02:05:47;;;;;;;0.65;0.60;;;20.80;48.40;;;;;;5034535;28;43656;-62
2021/12/19 02:08:16;;;;;;;0.82;0.70;;;20.80;48.40;;;;;;5033159;28;43845;-62
2021/12/19 02:10:45;;;;;;;0.60;0.60;;;20.80;48.40;;;;;;5054098;28;43733;-62
2021/12/19 02:13:14;;;;;;;0.45;0.45;;;20.80;49.00;;;;;;5054814;28;43619;-62
2021/12/19 02:15:43;;;;;;;0.52;0.52;;;20.80;48.40;;;;;;5037008;28;43597;-62
2021/12/19 02:18:15;;;;;;;0.95;0.68;;;20.80;48.40;;;;;;5055932;28;45331;-62
2021/12/19 02:20:50;;;;;;;1.08;0.63;;;20.80;48.40;;;;;;5049310;28;43602;-62
2021/12/19 02:23:21;;;;;;;0.70;0.57;;;20.80;48.40;;;;;;5056361;28;43591;-61
2021/12/19 02:25:49;;;;;;;1.55;0.95;;;20.80;49.10;;;;;;5051951;28;43612;-62
2021/12/19 02:28:18;;;;;;;1.27;0.50;;;20.80;48.40;;;;;;5038521;28;44029;-62
2021/12/19 02:30:47;;;;;;;1.40;0.85;;;20.80;48.40;;;;;;5049834;28;44047;-62
2021/12/19 02:33:19;;;;;;;0.80;0.75;;;20.80;48.50;;;;;;5055315;28;43582;-62
2021/12/19 02:35:56;;;;;;;1.77;0.70;;;20.70;48.40;;;;;;5055944;28;43656;-62
2021/12/19 02:49:35;;;;;;;0.50;0.43;;;20.70;48.50;;;;;;5053084;28;44144;-62
2021/12/19 02:52:14;;;;;;;0.50;0.50;;;20.70;48.60;;;;;;5054322;28;43699;-62
2021/12/19 02:54:43;;;;;;;0.80;0.60;;;20.60;48.50;;;;;;5036095;28;43604;-62
2021/12/19 02:57:12;;;;;;;0.57;0.50;;;20.60;48.50;;;;;;5042156;28;43585;-62
2021/12/19 02:59:39;;;;;;;0.50;0.50;;;20.60;48.60;;;;;;5032152;28;44082;-61
2021/12/19 03:02:07;;;;;;;0.68;0.47;;;20.60;48.50;;;;;;5059040;28;43572;-62
2021/12/19 03:04:34;;;;;;;1.35;0.80;;;20.60;48.50;;;;;;5051085;28;43637;-62
2021/12/19 03:07:03;;;;;;;0.63;0.57;;;20.60;48.60;;;;;;5034018;28;43636;-62
2021/12/19 03:09:56;;;;;;;1.20;0.70;;;20.60;48.60;;;;;;5048107;28;43728;-62
2021/12/19 03:20:21;;;;;;;1.73;0.70;;;20.60;48.60;;;;;;5048815;28;43930;-62
2021/12/19 03:22:49;;;;;;;2.15;0.90;;;20.60;48.60;;;;;;5046687;28;43545;-62
2021/12/19 03:25:17;;;;;;;0.98;0.60;;;20.60;48.60;;;;;;5049450;28;43709;-61
2021/12/19 03:27:44;;;;;;;0.95;0.60;;;20.60;48.60;;;;;;5049272;28;43549;-62
2021/12/19 03:30:12;;;;;;;0.60;0.60;;;20.60;48.50;;;;;;5046345;28;45075;-62
2021/12/19 03:32:40;;;;;;;1.23;0.70;;;20.60;48.50;;;;;;5051321;28;43666;-62
2021/12/19 03:35:08;;;;;;;0.70;0.70;;;20.60;48.60;;;;;;5047574;28;43573;-61
2021/12/19 03:37:41;;;;;;;0.70;0.65;;;20.50;48.50;;;;;;5056186;28;43680;-62
2021/12/19 03:40:13;;;;;;;0.77;0.52;;;20.50;48.50;;;;;;5038276;28;44941;-62
2021/12/19 03:42:47;;;;;;;1.70;0.80;;;20.50;48.50;;;;;;5053682;28;43593;-62
2021/12/19 03:45:18;;;;;;;0.80;0.80;;;20.50;48.50;;;;;;5051858;28;43628;-62
2021/12/19 03:47:46;;;;;;;1.77;0.85;;;20.50;48.60;;;;;;5054254;28;43634;-62
2021/12/19 03:50:18;;;;;;;0.80;0.63;;;20.50;48.60;;;;;;5035179;28;44674;-62
2021/12/19 03:52:46;;;;;;;2.10;0.90;;;20.50;48.60;;;;;;5049550;28;43658;-62
2021/12/19 03:55:14;;;;;;;1.67;1.02;;;20.50;48.50;;;;;;5052672;28;43664;-62
2021/12/19 03:57:42;;;;;;;1.45;1.10;;;20.50;48.50;;;;;;5047767;28;43594;-62
2021/12/19 04:00:13;;;;;;;0.85;0.85;;;20.50;49.10;;;;;;5048575;28;43700;-61
2021/12/19 04:02:41;;;;;;;1.90;0.93;;;20.50;48.50;;;;;;5051792;28;43654;-62
2021/12/19 04:05:09;;;;;;;1.48;0.85;;;20.50;48.60;;;;;;5051437;28;43620;-62
2021/12/19 04:07:36;;;;;;;2.00;1.20;;;20.50;48.90;;;;;;5027096;28;43532;-62
2021/12/19 04:10:05;;;;;;;1.88;1.00;;;20.50;48.50;;;;;;5051356;28;43968;-62
2021/12/19 04:12:33;;;;;;;1.67;1.20;;;20.50;48.50;;;;;;5049476;28;43589;-62
2021/12/19 04:15:00;;;;;;;1.52;1.15;;;20.50;48.40;;;;;;5047876;28;43566;-62
2021/12/19 04:17:28;;;;;;;1.90;1.30;;;20.40;48.40;;;;;;5031031;28;43597;-62
2021/12/19 04:19:55;;;;;;;2.08;1.30;;;20.40;48.50;;;;;;5048269;28;44152;-62
2021/12/19 04:22:23;;;;;;;2.30;1.20;;;20.40;48.40;;;;;;5053073;28;43661;-62
2021/12/19 04:24:50;;;;;;;2.30;1.13;;;20.40;48.50;;;;;;5054543;28;43679;-62
2021/12/19 04:27:19;;;;;;;2.30;1.30;;;20.40;48.50;;;;;;5033914;28;43666;-62
2021/12/19 04:29:46;;;;;;;2.35;1.40;;;20.40;48.50;;;;;;5051830;28;43926;-62
2021/12/19 04:32:14;;;;;;;1.48;1.38;;;20.30;48.60;;;;;;5049051;28;44201;-61
2021/12/19 04:34:42;;;;;;;2.63;1.50;;;20.40;48.50;;;;;;5057833;28;43681;-62
2021/12/19 04:37:33;;;;;;;2.85;1.30;;;20.30;48.50;;;;;;5050004;28;44300;-62
2021/12/19 04:40:07;;;;;;;1.60;1.30;;;20.30;48.50;;;;;;5032143;28;43910;-62
2021/12/19 04:53:37;;;;;;;2.72;1.60;;;20.30;48.50;;;;;;5054676;28;43630;-62
2021/12/19 04:56:31;;;;;;;2.17;1.80;;;20.30;48.50;;;;;;5045677;28;43517;-61
2021/12/19 04:59:14;;;;;;;1.98;1.50;;;20.30;48.50;;;;;;5046922;28;43624;-62
2021/12/19 05:15:13;;;;;;;3.08;1.77;;;20.20;48.40;;;;;;5050654;28;43606;-62
2021/12/19 05:17:40;;;;;;;1.92;1.70;;;20.20;48.50;;;;;;5054438;28;43544;-62
2021/12/19 05:20:15;;;;;;;2.45;1.60;;;20.20;48.50;;;;;;5051489;28;43615;-61
2021/12/19 05:22:48;;;;;;;3.63;1.88;;;20.30;48.50;;;;;;5034716;28;44055;-62
2021/12/19 05:25:19;;;;;;;2.58;1.83;;;20.20;48.50;;;;;;5035547;28;43663;-62
2021/12/19 05:27:54;;;;;;;2.25;1.52;;;20.20;48.40;;;;;;5055572;28;43601;-62
2021/12/19 05:30:23;;;;;;;2.90;1.88;;;20.20;48.50;;;;;;5053505;28;43748;-62
2021/12/19 05:32:53;;;;;;;2.70;1.70;;;20.20;48.50;;;;;;5054669;28;44972;-62
2021/12/19 05:35:32;;;;;;;2.80;1.90;;;20.20;48.40;;;;;;5031927;28;44779;-62
2021/12/19 05:46:19;;;;;;;1.80;1.60;;;20.20;48.50;;;;;;5050174;28;43568;-62
2021/12/19 05:48:47;;;;;;;3.00;1.73;;;20.20;48.50;;;;;;5053158;28;43601;-62
2021/12/19 05:51:15;;;;;;;2.10;1.60;;;20.20;48.50;;;;;;5054748;28;43609;-61
2021/12/19 05:53:42;;;;;;;1.95;1.50;;;20.20;48.50;;;;;;5035373;28;44170;-62
2021/12/19 05:56:10;;;;;;;3.05;1.77;;;20.20;48.40;;;;;;5036465;28;44249;-62
2021/12/19 05:58:38;;;;;;;2.47;1.63;;;20.20;48.40;;;;;;5056882;28;43687;-62
2021/12/19 06:01:06;;;;;;;3.00;1.60;;;20.20;48.40;;;;;;5054227;28;43555;-62
2021/12/19 06:03:33;;;;;;;1.60;1.50;;;20.20;48.50;;;;;;5051944;28;44313;-61
2021/12/19 06:06:01;;;;;;;3.92;1.65;;;20.20;48.50;;;;;;5050339;28;43593;-62
2021/12/19 06:08:28;;;;;;;2.70;1.60;;;20.20;48.50;;;;;;5051055;28;43602;-62
2021/12/19 06:10:56;;;;;;;2.65;1.67;;;20.20;48.50;;;;;;5053398;28;43677;-62
2021/12/19 06:13:24;;;;;;;1.77;1.40;;;20.20;48.50;;;;;;5048431;28;45908;-62
2021/12/19 06:15:54;;;;;;;2.20;1.50;;;20.20;48.50;;;;;;5036236;28;43565;-61
2021/12/19 06:18:23;;;;;;;1.95;1.38;;;20.20;48.40;;;;;;5056840;28;43555;-62
2021/12/19 06:20:50;;;;;;;2.72;1.42;;;20.20;48.40;;;;;;5054471;28;43666;-62
2021/12/19 06:23:18;;;;;;;2.47;1.45;;;20.20;48.40;;;;;;5053856;28;44032;-62
2021/12/19 06:25:49;;;;;;;1.88;1.40;;;20.20;48.30;;;;;;5054343;28;43577;-62
2021/12/19 06:28:18;;;;;;;2.35;1.60;;;20.30;48.30;;;;;;5057127;28;43581;-62
2021/12/19 06:30:46;;;;;;;1.98;1.30;;;20.30;48.20;;;;;;5051498;28;43690;-61
2021/12/19 06:33:14;;;;;;;2.45;1.85;;;20.30;48.10;;;;;;5046849;28;44070;-62
2021/12/19 06:35:42;;;;;;;1.85;1.42;;;20.30;48.00;;;;;;5056314;28;44786;-62
2021/12/19 06:38:12;;;;;;;2.53;1.48;;;20.30;48.10;;;;;;5057478;28;44827;-62
2021/12/19 06:40:40;;;;;;;2.40;1.60;;;20.30;48.00;;;;;;5036417;28;43644;-62
2021/12/19 06:43:07;;;;;;;2.95;1.60;;;20.30;48.00;;;;;;5038473;28;43791;-61
2021/12/19 06:45:35;;;;;;;2.20;1.50;;;20.30;48.00;;;;;;5053036;28;43597;-62
2021/12/19 06:48:02;;;;;;;3.97;1.63;;;20.30;47.90;;;;;;5047929;28;44893;-62
2021/12/19 06:50:30;;;;;;;2.22;1.48;;;20.30;48.00;;;;;;5052809;28;43588;-62
2021/12/19 06:52:57;;;;;;;2.40;1.20;;;20.30;47.90;;;;;;5048493;28;44999;-62
2021/12/19 06:55:25;;;;;;;2.97;1.77;;;20.30;47.90;;;;;;5046176;28;43901;-62
2021/12/19 06:57:53;;;;;;;2.88;1.50;;;20.30;48.10;;;;;;5042572;28;43632;-62
2021/12/19 07:00:23;;;;;;;4.97;1.75;;;20.30;48.20;;;;;;5030699;28;43592;-62
2021/12/19 07:02:53;;;;;;;3.67;1.65;;;20.20;48.20;;;;;;5043972;28;45309;-61
2021/12/19 07:05:21;;;;;;;5.03;2.03;;;20.20;48.20;;;;;;5054208;27;43621;-62
2021/12/19 07:07:49;;;;;;;3.17;1.90;;;20.20;48.30;;;;;;5047194;28;43851;-62
2021/12/19 07:10:17;;;;;;;3.35;1.70;;;20.20;48.40;;;;;;5049569;28;43605;-62
2021/12/19 07:12:44;;;;;;;2.60;1.40;;;20.20;48.30;;;;;;5045683;28;44899;-62
2021/12/19 07:15:14;;;;;;;2.55;1.52;;;20.20;48.30;;;;;;5033731;28;43723;-61
2021/12/19 07:17:42;;;;;;;2.65;1.58;;;20.10;48.30;;;;;;5051056;28;43565;-62
2021/12/19 07:20:10;;;;;;;3.28;1.75;;;20.10;48.30;;;;;;5049360;28;43590;-62
2021/12/19 07:22:37;;;;;;;4.10;1.42;;;20.10;48.30;;;;;;5047112;28;44165;-62
2021/12/19 07:25:05;;;;;;;3.88;1.60;;;20.10;48.40;;;;;;5050681;28;43712;-62
2021/12/19 07:27:33;;;;;;;2.72;1.50;;;20.10;48.40;;;;;;5052604;28;43588;-62
2021/12/19 07:30:00;;;;;;;3.13;1.77;;;20.10;48.50;;;;;;5038321;28;43572;-62
2021/12/19 07:32:28;;;;;;;2.35;1.65;;;20.10;48.50;;;;;;5052078;28;45230;-62
2021/12/19 07:35:15;;;;;;;5.30;1.50;;;20.10;48.50;;;;;;5050481;28;43514;-61
2021/12/19 07:37:45;;;;;;;2.90;1.48;;;20.10;48.50;;;;;;5033155;28;43667;-61
2021/12/19 07:40:18;;;;;;;2.08;1.23;;;20.10;48.50;;;;;;5055433;28;43686;-61
2021/12/19 07:42:46;;;;;;;2.03;1.38;;;20.10;48.50;;;;;;5045221;28;44386;-62
2021/12/19 07:45:16;;;;;;;2.83;1.45;;;20.10;48.40;;;;;;5046066;28;43560;-62
2021/12/19 07:47:45;;;;;;;3.05;1.40;;;20.10;48.40;;;;;;5051050;28;43558;-61
2021/12/19 07:50:15;;;;;;;3.22;1.67;;;20.10;48.40;;;;;;5034106;28;43678;-61
2021/12/19 07:52:43;;;;;;;2.88;1.52;;;20.10;48.30;;;;;;5049674;28;43797;-62
2021/12/19 07:55:11;;;;;;;2.40;1.60;;;20.10;48.40;;;;;;5006603;28;43705;-61
2021/12/19 07:57:40;;;;;;;3.33;1.63;;;20.20;49.10;;;;;;5051350;28;43670;-61
2021/12/19 08:00:10;;;;;;;2.17;1.50;;;20.20;48.40;;;;;;5031439;28;43649;-62
2021/12/19 08:02:39;;;;;;;1.85;1.27;;;20.20;48.30;;;;;;5048957;28;43759;-62
2021/12/19 08:05:08;;;;;;;3.55;1.38;;;20.20;48.30;;;;;;5047579;28;43518;-61
2021/12/19 08:07:38;;;;;;;3.42;1.70;;;20.20;48.30;;;;;;5050453;28;43552;-61
2021/12/19 08:11:39;;;;;;;2.53;1.50;;;20.20;48.20;;;;;;5048137;28;43595;-61
2021/12/19 08:13:05;;;;;;;2.25;1.48;;;20.20;48.20;;;;;;5041976;28;44120;-61
2021/12/19 08:15:34;;;;;;;3.70;1.50;;;20.20;48.20;;;;;;5025647;28;43626;-62
2021/12/19 08:18:02;;;;;;;2.75;1.48;;;20.20;48.30;;;;;;5051933;28;43553;-61
2021/12/19 08:20:30;;;;;;;1.40;1.30;;;20.20;48.20;;;;;;5031214;28;43689;-61
2021/12/19 08:22:58;;;;;;;3.22;1.83;;;20.30;48.30;;;;;;5039077;28;44957;-61
2021/12/19 08:25:26;;;;;;;2.42;1.45;;;20.30;48.20;;;;;;5056266;28;43608;-62
2021/12/19 08:27:54;;;;;;;3.10;1.67;;;20.30;48.30;;;;;;5052774;28;43610;-62
2021/12/19 08:30:24;;;;;;;1.92;1.42;;;20.30;48.30;;;;;;5054872;28;43747;-62
2021/12/19 08:32:52;;;;;;;3.35;1.70;;;20.30;48.30;;;;;;5034882;28;44393;-62
2021/12/19 08:35:20;;;;;;;2.20;1.50;;;20.30;48.30;;;;;;5048891;28;43604;-61
2021/12/19 08:37:47;;;;;;;2.20;1.30;;;20.30;48.20;;;;;;5048457;28;43718;-62
2021/12/19 08:40:15;;;;;;;2.90;1.60;;;20.30;48.30;;;;;;5042103;28;43610;-62
2021/12/19 08:42:44;;;;;;;4.80;1.75;;;20.30;48.20;;;;;;5044398;28;44237;-61
2021/12/19 08:45:12;;;;;;;3.80;1.50;;;20.40;48.20;;;;;;5030398;28;43665;-61
2021/12/19 08:47:39;;;;;;;2.78;1.40;;;20.40;48.20;;;;;;5051509;28;43666;-62
2021/12/19 08:50:09;;;;;;;3.47;1.63;;;20.40;48.20;;;;;;5026511;28;43566;-61
2021/12/19 08:52:36;;;;;;;2.35;1.42;;;20.40;48.20;;;;;;5046385;28;43811;-62
2021/12/19 08:55:05;;;;;;;3.95;1.58;;;20.40;48.00;;;;;;5046151;28;43822;-62
2021/12/19 08:57:33;;;;;;;2.45;1.48;;;20.40;48.30;;;;;;5046945;28;43566;-62
2021/12/19 09:00:03;;;;;;;1.92;1.42;;;20.50;48.20;;;;;;5045893;28;43648;-62
2021/12/19 09:02:30;;;;;;;2.28;1.30;;;20.50;48.20;;;;;;5049078;28;44080;-61
2021/12/19 09:04:58;;;;;;;2.15;1.38;;;20.50;48.20;;;;;;5033751;28;43681;-62
2021/12/19 09:07:26;;;;;;;2.95;1.40;;;20.60;48.10;;;;;;5051363;28;43556;-62
2021/12/19 09:09:54;;;;;;;2.60;1.40;;;20.60;48.10;;;;;;5049239;28;43909;-61
2021/12/19 09:12:22;;;;;;;2.17;1.40;;;20.60;48.10;;;;;;5049379;28;43949;-62
2021/12/19 09:14:50;;;;;;;2.22;1.63;;;20.60;48.00;;;;;;5052686;28;43668;-62
2021/12/19 09:17:17;;;;;;;2.03;1.30;;;20.60;48.00;;;;;;5050090;28;43657;-62
2021/12/19 09:19:45;;;;;;;2.50;1.48;;;20.60;48.00;;;;;;5047687;28;43532;-62
2021/12/19 09:22:12;;;;;;;2.55;1.33;;;20.60;48.00;;;;;;5051300;28;44055;-62
2021/12/19 09:24:40;;;;;;;1.33;1.15;;;20.70;48.00;;;;;;5051706;28;43629;-61
2021/12/19 09:27:09;;;;;;;2.00;1.60;;;20.70;48.00;;;;;;5048971;28;43650;-61
2021/12/19 09:29:37;;;;;;;2.38;1.52;;;20.70;48.00;;;;;;5049195;28;44490;-62
2021/12/19 09:32:05;;;;;;;3.47;1.50;;;20.70;48.10;;;;;;5054662;28;44023;-62
2021/12/19 09:34:33;;;;;;;2.22;1.30;;;20.70;48.00;;;;;;5051152;28;43993;-62
2021/12/19 09:37:01;;;;;;;2.30;1.42;;;20.80;48.00;;;;;;5047061;28;43594;-61
2021/12/19 09:39:30;;;;;;;2.63;1.45;;;20.80;47.80;;;;;;5035018;28;43677;-62
2021/12/19 09:42:02;;;;;;;2.10;1.20;;;20.80;48.10;;;;;;5046053;28;43798;-61
2021/12/19 09:44:29;;;;;;;1.88;1.20;;;20.80;48.00;;;;;;5034950;28;43968;-61
2021/12/19 09:46:57;;;;;;;3.80;1.27;;;20.80;48.00;;;;;;5046331;28;43546;-61
2021/12/19 09:49:25;;;;;;;2.53;1.23;;;20.80;48.00;;;;;;5039135;28;43582;-61
2021/12/19 09:51:53;;;;;;;2.17;1.63;;;20.80;47.90;;;;;;5055275;28;44413;-63
2021/12/19 09:54:20;;;;;;;2.08;1.35;;;20.90;47.90;;;;;;5053902;28;44006;-62
2021/12/19 09:56:49;;;;;;;2.22;1.48;;;20.90;47.90;;;;;;5054946;28;43598;-61
2021/12/19 09:59:19;;;;;;;1.83;1.20;;;20.90;47.80;;;;;;5059008;28;44221;-62
2021/12/19 10:01:49;;;;;;;2.25;1.67;;;20.90;47.90;;;;;;5051168;28;43768;-61
2021/12/19 10:04:43;;;;;;;2.33;1.30;;;20.90;47.90;;;;;;5036869;28;43513;-62
2021/12/19 10:07:20;;;;;;;1.88;1.13;;;21.00;47.90;;;;;;5052779;28;44809;-62
2021/12/19 10:10:13;;;;;;;3.22;1.58;;;21.00;47.80;;;;;;5036011;28;43630;-62
2021/12/19 10:12:51;;;;;;;2.53;1.50;;;21.10;47.80;;;;;;5052466;28;43763;-62
2021/12/19 10:15:20;;;;;;;2.67;1.33;;;21.10;47.80;;;;;;5038549;28;43829;-62
2021/12/19 10:17:57;;;;;;;4.07;1.88;;;21.10;47.80;;;;;;5063052;28;43715;-62
2021/12/19 10:20:25;;;;;;;2.38;1.50;;;21.10;47.80;;;;;;5056600;28;43655;-61
2021/12/19 10:22:52;;;;;;;3.03;1.20;;;21.10;47.80;;;;;;5055855;28;44939;-61
2021/12/19 10:25:30;;;;;;;2.47;1.50;;;21.20;47.80;;;;;;5052684;28;43616;-62
2021/12/19 10:28:03;;;;;;;3.78;1.73;;;21.20;47.80;;;;;;5050878;28;44755;-61
2021/12/19 10:30:34;;;;;;;4.00;1.42;;;21.20;47.70;;;;;;5047623;28;43555;-62
2021/12/19 10:33:17;;;;;;;2.38;1.60;;;21.20;47.70;;;;;;5052326;28;44971;-61
2021/12/19 10:35:54;;;;;;;3.20;1.60;;;21.20;47.70;;;;;;5047859;28;44113;-61
2021/12/19 10:38:34;;;;;;;2.88;1.63;;;21.20;47.80;;;;;;5051038;28;43615;-62
2021/12/19 10:41:06;;;;;;;2.90;1.40;;;21.20;47.80;;;;;;5049372;28;43676;-62
2021/12/19 10:43:46;;;;;;;2.47;1.50;;;21.30;47.80;;;;;;5045772;28;43872;-61
2021/12/19 10:46:13;;;;;;;3.55;1.70;;;21.20;47.70;;;;;;5040945;28;43704;-61
2021/12/19 10:48:42;;;;;;;2.33;1.50;;;21.30;47.80;;;;;;5044474;28;44930;-62
2021/12/19 10:51:19;;;;;;;2.88;1.42;;;21.30;47.80;;;;;;5044207;28;43691;-62
2021/12/19 10:53:49;;;;;;;3.10;1.60;;;21.30;47.70;;;;;;5044374;28;43805;-62
2021/12/19 10:56:18;;;;;;;4.53;1.50;;;21.30;47.60;;;;;;5045181;28;43624;-61
2021/12/19 10:58:55;;;;;;;2.92;1.58;;;21.40;47.80;;;;;;5050797;28;43562;-61
2021/12/19 11:01:31;;;;;;;2.95;1.70;;;21.40;47.70;;;;;;5051905;28;43889;-61
2021/12/19 11:04:01;;;;;;;3.25;1.40;;;21.40;47.80;;;;;;5049343;28;43815;-61
2021/12/19 11:06:44;;;;;;;3.28;1.60;;;21.40;47.80;;;;;;5047627;28;43842;-62
2021/12/19 11:09:17;;;;;;;4.47;1.73;;;21.40;47.80;;;;;;5048922;28;43565;-61
2021/12/19 11:11:46;;;;;;;4.07;1.83;;;21.40;47.80;;;;;;5029607;28;43698;-61
2021/12/19 11:14:21;;;;;;;3.05;2.00;;;21.40;47.80;;;;;;5030653;28;44237;-61
2021/12/19 11:16:52;;;;;;;4.28;1.70;;;21.40;48.10;;;;;;5031626;28;43634;-61
2021/12/19 11:19:24;;;;;;;3.17;1.75;;;21.40;47.90;;;;;;5050219;28;43651;-62
2021/12/19 11:22:14;;;;;;;4.10;2.17;;;21.40;47.90;;;;;;5051469;28;43720;-61
2021/12/19 11:24:43;;;;;;;3.58;1.75;;;21.40;47.90;;;;;;5032156;28;43987;-61
2021/12/19 11:27:11;;;;;;;4.70;1.95;;;21.40;48.00;;;;;;5050410;28;43655;-61
2021/12/19 11:29:40;;;;;;;4.85;1.70;;;21.40;48.00;;;;;;5016159;28;43611;-62
2021/12/19 11:32:09;;;;;;;2.75;1.50;;;21.40;48.60;;;;;;5050392;28;43808;-61
2021/12/19 11:35:04;;;;;;;3.58;1.75;;;21.40;48.00;;;;;;5051010;28;43798;-61
2021/12/19 11:37:39;;;;;;;4.65;1.70;;;21.40;48.00;;;;;;5034978;28;43570;-62
2021/12/19 11:40:09;;;;;;;4.38;2.03;;;21.40;48.10;;;;;;5050130;28;43625;-61
2021/12/19 11:42:39;;;;;;;3.92;2.10;;;21.40;48.00;;;;;;5035758;28;43658;-61
2021/12/19 11:45:28;;;;;;;2.45;1.67;;;21.40;48.00;;;;;;5049725;28;44065;-61
2021/12/19 11:48:13;;;;;;;3.58;1.80;;;21.40;48.00;;;;;;5030228;28;44762;-61
2021/12/19 11:50:53;;;;;;;4.90;1.88;;;21.40;48.10;;;;;;5050442;28;44578;-61
2021/12/19 11:53:22;;;;;;;3.88;1.73;;;21.40;48.10;;;;;;5050826;28;43717;-61
2021/12/19 11:55:54;;;;;;;3.85;1.80;;;21.50;48.10;;;;;;5037786;28;45708;-61
2021/12/19 11:58:25;;;;;;;4.03;1.58;;;21.50;48.20;;;;;;5056469;28;43588;-62
2021/12/19 12:01:01;;;;;;;4.38;1.73;;;21.50;48.20;;;;;;5053753;28;43589;-61
2021/12/19 12:03:42;;;;;;;3.60;1.95;;;21.50;48.10;;;;;;5054462;28;43680;-61
2021/12/19 12:06:20;;;;;;;6.00;2.20;;;21.50;48.00;;;;;;5049061;28;43819;-61
2021/12/19 12:09:39;;;;;;;3.90;1.90;;;21.50;48.10;;;;;;5059690;28;43640;-62
2021/12/19 12:12:11;;;;;;;3.85;2.03;;;21.50;48.10;;;;;;5055023;28;43586;-61
2021/12/19 12:14:57;;;;;;;3.33;1.80;;;21.50;48.20;;;;;;5052164;28;43637;-61
2021/12/19 12:17:36;;;;;;;4.13;1.80;;;21.50;48.20;;;;;;5055001;28;43800;-61
2021/12/19 12:20:20;;;;;;;3.35;1.92;;;21.50;48.50;;;;;;5047366;28;44174;-61
2021/12/19 12:22:56;;;;;;;2.78;1.67;;;21.50;48.10;;;;;;5046051;28;43569;-61
2021/12/19 12:25:31;;;;;;;2.08;1.33;;;21.60;48.10;;;;;;5044761;28;43596;-61
2021/12/19 12:28:08;;;;;;;2.67;1.50;;;21.60;48.10;;;;;;5046201;28;43747;-61
2021/12/19 12:30:46;;;;;;;3.28;1.73;;;21.60;48.10;;;;;;5031632;28;43614;-61
2021/12/19 12:33:20;;;;;;;3.15;1.67;;;21.60;48.10;;;;;;5048362;28;44893;-61
2021/12/19 12:35:50;;;;;;;3.08;1.80;;;21.70;48.00;;;;;;5042866;28;43863;-61
2021/12/19 12:38:20;;;;;;;3.83;1.70;;;21.70;48.00;;;;;;5030999;28;44108;-61
2021/12/19 12:41:06;;;;;;;4.05;1.77;;;21.70;48.00;;;;;;5047883;28;44125;-62
2021/12/19 12:43:36;;;;;;;3.47;1.90;;;21.80;48.00;;;;;;5046812;28;43559;-61
2021/12/19 12:46:21;;;;;;;4.80;1.98;;;21.80;48.00;;;;;;5046588;28;44121;-61
2021/12/19 12:49:03;;;;;;;2.65;1.52;;;21.80;48.00;;;;;;5041676;28;44673;-61
2021/12/19 12:51:47;;;;;;;2.55;1.33;;;21.80;48.00;;;;;;5030780;28;43802;-61
2021/12/19 12:54:25;;;;;;;4.05;1.90;;;21.90;48.00;;;;;;5030762;28;43558;-61
2021/12/19 12:56:55;;;;;;;4.50;1.90;;;21.90;48.00;;;;;;5049284;28;43622;-61
2021/12/19 12:59:27;;;;;;;2.27;1.57;;;21.90;48.00;;;;;;5030564;28;44007;-61
2021/12/19 13:04:55;;;;;;;2.63;1.73;;;22.00;48.00;;;;;;5035828;28;43560;-61
2021/12/19 13:07:24;;;;;;;3.20;1.73;;;22.00;48.00;;;;;;5035896;28;43627;-61
2021/12/19 13:09:55;;;;;;;5.03;1.80;;;22.00;47.90;;;;;;5053489;28;43590;-62
2021/12/19 13:12:25;;;;;;;3.37;1.60;;;22.00;48.00;;;;;;5050618;28;43593;-61
2021/12/19 13:14:57;;;;;;;;;;;22.00;47.90;;;;;;5040597;28;43632;-61
2021/12/19 13:17:34;;;;;;;3.60;1.55;;;22.00;48.00;;;;;;5051927;28;43692;-62
2021/12/19 13:20:12;;;;;;;3.50;1.95;;;22.00;47.90;;;;;;5056686;28;44427;-61
2021/12/19 13:22:54;;;;;;;3.15;1.60;;;22.10;48.00;;;;;;5052549;28;44503;-61
2021/12/19 13:25:29;;;;;;;3.78;1.83;;;22.10;48.00;;;;;;5056751;28;44786;-61
2021/12/19 13:28:03;;;;;;;2.95;1.58;;;22.10;48.00;;;;;;5057405;28;43601;-61
2021/12/19 13:30:36;;;;;;;2.33;1.70;;;22.10;47.90;;;;;;5056338;28;43775;-61
2021/12/19 13:33:14;;;;;;;3.60;1.83;;;22.10;47.90;;;;;;5056686;28;43980;-61
2021/12/19 13:35:46;;;;;;;4.90;1.80;;;22.10;47.90;;;;;;5041783;28;43557;-62
2021/12/19 13:38:22;;;;;;;3.35;1.70;;;22.10;47.80;;;;;;5053456;28;43607;-61
2021/12/19 13:40:55;;;;;;;3.17;1.67;;;22.10;47.80;;;;;;5057314;28;44285;-62
2021/12/19 13:43:26;;;;;;;4.43;2.00;;;22.10;47.80;;;;;;5053129;28;43927;-61
2021/12/19 13:45:57;;;;;;;3.70;2.08;;;22.10;47.80;;;;;;5063001;28;43589;-61
2021/12/19 13:48:51;;;;;;;4.75;1.80;;;22.10;47.80;;;;;;5052449;28;43540;-61
2021/12/19 13:51:23;;;;;;;4.30;1.77;;;22.10;47.70;;;;;;5053530;28;43838;-62
2021/12/19 13:53:56;;;;;;;3.42;1.60;;;22.20;47.80;;;;;;5042575;28;43619;-61
2021/12/19 13:56:34;;;;;;;3.53;1.92;;;22.20;47.80;;;;;;5051211;28;43559;-62
2021/12/19 13:59:21;;;;;;;3.00;1.65;;;22.20;47.80;;;;;;5060224;28;44798;-61
2021/12/19 14:01:49;;;;;;;3.13;1.95;;;22.20;47.80;;;;;;5050644;28;44781;-62
2021/12/19 14:04:24;;;;;;;3.08;1.70;;;22.20;47.80;;;;;;5054495;28;43713;-62
2021/12/19 14:07:05;;;;;;;2.25;1.90;;;22.20;47.80;;;;;;5059870;28;43560;-61
2021/12/19 14:09:57;;;;;;;3.00;1.77;;;22.20;47.80;;;;;;5053882;28;43655;-61
2021/12/19 14:12:51;;;;;;;4.43;1.75;;;22.30;47.90;;;;;;5046725;28;43890;-62